createdAt,value
2023-04-06T00:00:37.639Z,3.90
2023-04-06T00:03:06.183Z,4.00
2023-04-06T00:05:34.821Z,3.90
2023-04-06T00:08:03.005Z,4.20
2023-04-06T00:10:31.681Z,4.20
2023-04-06T00:13:01.872Z,4.17
2023-04-06T00:15:30.054Z,4.63
2023-04-06T00:17:58.479Z,4.00
2023-04-06T00:20:26.813Z,4.17
2023-04-06T00:22:55.256Z,4.90
2023-04-06T00:25:23.421Z,6.63
2023-04-06T00:27:51.611Z,5.03
2023-04-06T00:30:21.670Z,4.80
2023-04-06T00:32:50.686Z,7.00
2023-04-06T00:35:18.764Z,11.70
2023-04-06T00:37:49.128Z,67.73
2023-04-06T00:40:17.830Z,21.23
2023-04-06T00:42:46.348Z,8.33
2023-04-06T00:45:14.535Z,6.03
2023-04-06T00:47:44.467Z,5.30
2023-04-06T00:50:12.780Z,5.13
2023-04-06T00:52:41.343Z,5.60
2023-04-06T00:55:10.611Z,6.17
2023-04-06T00:57:38.718Z,5.20
2023-04-06T01:00:08.394Z,4.77
2023-04-06T01:02:36.797Z,5.10
2023-04-06T01:05:07.561Z,4.67
2023-04-06T01:07:35.763Z,3.90
2023-04-06T01:10:04.058Z,4.70
2023-04-06T01:12:32.157Z,4.50
2023-04-06T01:15:00.906Z,4.97
2023-04-06T01:17:29.766Z,4.90
2023-04-06T01:19:58.013Z,4.90
2023-04-06T01:22:28.214Z,4.33
2023-04-06T01:24:56.596Z,4.60
2023-04-06T01:27:26.663Z,4.43
2023-04-06T01:29:54.971Z,4.40
2023-04-06T01:32:23.563Z,4.50
2023-04-06T01:34:51.895Z,4.30
2023-04-06T01:37:20.284Z,4.73
2023-04-06T01:39:49.715Z,4.63
2023-04-06T01:42:17.797Z,3.87
2023-04-06T01:44:46.137Z,4.20
2023-04-06T01:47:14.444Z,4.53
2023-04-06T01:49:42.867Z,4.27
2023-04-06T01:52:11.080Z,4.40
2023-04-06T01:54:39.147Z,4.20
2023-04-06T01:57:09.565Z,4.30
2023-04-06T01:59:37.737Z,4.50
2023-04-06T02:02:06.167Z,4.40
2023-04-06T02:04:34.266Z,4.20
2023-04-06T02:07:02.583Z,4.43
2023-04-06T02:09:30.660Z,4.13
2023-04-06T02:11:59.303Z,4.20
2023-04-06T02:14:30.041Z,4.47
2023-04-06T02:16:58.138Z,5.00
2023-04-06T02:19:26.495Z,5.40
2023-04-06T02:21:54.887Z,4.67
2023-04-06T02:24:23.150Z,4.40
2023-04-06T02:26:51.498Z,4.30
2023-04-06T02:29:19.634Z,4.90
2023-04-06T02:31:49.295Z,4.47
2023-04-06T02:34:18.869Z,4.37
2023-04-06T02:36:47.948Z,4.83
2023-04-06T02:39:16.810Z,4.20
2023-04-06T02:41:45.838Z,4.70
2023-04-06T02:44:14.372Z,4.77
2023-04-06T02:46:42.596Z,4.40
2023-04-06T02:49:12.118Z,4.10
2023-04-06T02:51:40.595Z,4.57
2023-04-06T02:54:08.763Z,4.43
2023-04-06T02:56:37.394Z,4.20
2023-04-06T02:59:05.521Z,4.70
2023-04-06T03:01:33.576Z,4.33
2023-04-06T03:04:02.010Z,4.30
2023-04-06T03:06:31.520Z,4.43
2023-04-06T03:08:59.910Z,4.37
2023-04-06T03:11:28.095Z,4.90
2023-04-06T03:13:56.308Z,4.87
2023-04-06T03:16:24.531Z,4.93
2023-04-06T03:18:52.765Z,4.60
2023-04-06T03:21:21.843Z,4.93
2023-04-06T03:23:52.350Z,4.73
2023-04-06T03:26:20.737Z,4.40
2023-04-06T03:28:48.917Z,4.63
2023-04-06T03:31:17.339Z,4.93
2023-04-06T03:33:46.810Z,4.50
2023-04-06T03:36:14.895Z,4.57
2023-04-06T03:38:42.948Z,4.87
2023-04-06T03:41:12.520Z,5.30
2023-04-06T03:43:40.781Z,5.00
2023-04-06T03:46:08.853Z,5.10
2023-04-06T03:48:37.554Z,4.77
2023-04-06T03:51:08.233Z,5.20
2023-04-06T03:53:38.075Z,4.27
2023-04-06T03:56:07.583Z,4.63
2023-04-06T03:58:37.674Z,4.37
2023-04-06T04:01:05.933Z,4.83
2023-04-06T04:03:36.035Z,4.33
2023-04-06T04:06:04.349Z,4.40
2023-04-06T04:08:32.437Z,4.70
2023-04-06T04:11:00.738Z,4.03
2023-04-06T04:13:28.983Z,5.17
2023-04-06T04:15:59.846Z,4.80
2023-04-06T04:18:28.659Z,4.47
2023-04-06T04:20:57.209Z,4.70
2023-04-06T04:23:25.319Z,4.80
2023-04-06T04:25:53.651Z,5.03
2023-04-06T04:28:21.957Z,5.40
2023-04-06T04:30:50.115Z,6.17
2023-04-06T04:33:20.083Z,7.07
2023-04-06T04:35:48.455Z,5.83
2023-04-06T04:38:17.120Z,5.70
2023-04-06T04:40:45.514Z,6.00
2023-04-06T04:43:13.938Z,5.40
2023-04-06T04:45:42.258Z,5.20
2023-04-06T04:48:13.130Z,5.63
2023-04-06T04:50:42.704Z,5.97
2023-04-06T04:53:11.227Z,5.37
2023-04-06T04:55:39.789Z,5.40
2023-04-06T04:58:07.881Z,5.73
2023-04-06T05:00:35.955Z,5.63
2023-04-06T05:03:05.620Z,5.27
2023-04-06T05:05:35.480Z,5.30
2023-04-06T05:08:05.800Z,4.70
2023-04-06T05:10:35.314Z,5.47
2023-04-06T05:13:03.743Z,6.97
2023-04-06T05:15:32.214Z,6.00
2023-04-06T05:18:00.502Z,6.97
2023-04-06T05:20:29.197Z,6.13
2023-04-06T05:22:58.073Z,6.47
2023-04-06T05:25:28.575Z,6.13
2023-04-06T05:27:57.106Z,6.13
2023-04-06T05:30:25.871Z,5.57
2023-04-06T05:32:54.078Z,8.10
2023-04-06T05:35:22.247Z,8.17
2023-04-06T05:37:50.627Z,6.60
2023-04-06T05:40:18.984Z,6.47
2023-04-06T05:42:48.587Z,7.83
2023-04-06T05:45:18.015Z,7.67
2023-04-06T05:47:46.692Z,8.13
2023-04-06T05:50:16.153Z,9.23
2023-04-06T05:52:47.470Z,8.97
2023-04-06T05:55:15.750Z,8.57
2023-04-06T05:57:43.725Z,9.20
2023-04-06T06:00:18.565Z,8.53
2023-04-06T06:02:47.501Z,8.70
2023-04-06T06:05:15.926Z,8.57
2023-04-06T06:07:44.191Z,7.93
2023-04-06T06:10:13.237Z,6.80
2023-04-06T06:12:41.570Z,7.40
2023-04-06T06:15:10.494Z,7.20
2023-04-06T06:17:41.702Z,7.13
2023-04-06T06:20:10.884Z,6.23
2023-04-06T06:22:38.991Z,6.03
2023-04-06T06:25:08.800Z,6.17
2023-04-06T06:27:36.917Z,6.50
2023-04-06T06:30:06.087Z,6.73
2023-04-06T06:32:34.913Z,7.00
2023-04-06T06:35:04.658Z,7.23
2023-04-06T06:37:34.428Z,7.37
2023-04-06T06:40:02.620Z,7.83
2023-04-06T06:42:30.629Z,7.40
2023-04-06T06:44:59.863Z,7.87
2023-04-06T06:47:28.096Z,7.30
2023-04-06T06:49:56.613Z,7.47
2023-04-06T06:52:26.620Z,7.97
2023-04-06T06:54:57.554Z,7.40
2023-04-06T06:57:26.182Z,7.27
2023-04-06T06:59:54.412Z,7.17
2023-04-06T07:02:22.722Z,6.77
2023-04-06T07:04:51.246Z,6.80
2023-04-06T07:07:19.348Z,6.93
2023-04-06T07:09:49.350Z,7.60
2023-04-06T07:12:17.772Z,7.20
2023-04-06T07:14:46.221Z,7.10
2023-04-06T07:17:14.437Z,7.73
2023-04-06T07:19:43.368Z,6.33
2023-04-06T07:22:11.458Z,6.00
2023-04-06T07:24:39.584Z,6.40
2023-04-06T07:27:09.357Z,5.67
2023-04-06T07:29:37.768Z,6.60
2023-04-06T07:32:07.342Z,6.93
2023-04-06T07:34:35.682Z,6.70
2023-04-06T07:37:04.497Z,6.40
2023-04-06T07:39:32.920Z,6.47
2023-04-06T07:42:01.015Z,6.47
2023-04-06T07:44:30.728Z,6.27
2023-04-06T07:46:58.843Z,6.43
2023-04-06T07:49:27.568Z,6.20
2023-04-06T07:51:56.314Z,6.43
2023-04-06T07:54:24.453Z,6.73
2023-04-06T07:56:52.564Z,6.50
2023-04-06T07:59:20.857Z,6.53
2023-04-06T08:01:50.552Z,6.47
2023-04-06T08:04:19.099Z,6.60
2023-04-06T08:06:47.338Z,7.03
2023-04-06T08:09:15.678Z,6.63
2023-04-06T08:11:45.470Z,6.93
2023-04-06T08:14:13.884Z,6.97
2023-04-06T08:16:42.116Z,7.70
2023-04-06T08:19:12.416Z,7.67
2023-04-06T08:21:42.142Z,7.87
2023-04-06T08:24:11.369Z,8.07
2023-04-06T08:26:39.477Z,8.37
2023-04-06T08:29:09.826Z,8.57
2023-04-06T08:31:38.982Z,8.80
2023-04-06T08:34:09.414Z,8.47
2023-04-06T08:36:40.619Z,8.77
2023-04-06T08:39:10.865Z,9.07
2023-04-06T08:41:39.183Z,9.23
2023-04-06T08:44:07.733Z,9.37
2023-04-06T08:46:36.407Z,9.10
2023-04-06T08:49:07.944Z,9.13
2023-04-06T08:51:39.326Z,8.60
2023-04-06T08:54:09.102Z,9.37
2023-04-06T08:56:41.392Z,10.00
2023-04-06T08:59:11.889Z,9.53
2023-04-06T09:01:43.481Z,9.10
2023-04-06T09:04:13.930Z,10.03
2023-04-06T09:06:42.773Z,9.73
2023-04-06T09:09:12.818Z,9.40
2023-04-06T09:11:47.078Z,9.30
2023-04-06T09:14:17.994Z,10.00
2023-04-06T09:16:48.637Z,10.03
2023-04-06T09:19:17.126Z,10.97
2023-04-06T09:21:45.646Z,9.73
2023-04-06T09:24:15.733Z,10.13
2023-04-06T09:26:49.204Z,9.30
2023-04-06T09:29:30.921Z,9.77
2023-04-06T09:32:06.214Z,9.90
2023-04-06T09:34:35.047Z,10.03
2023-04-06T09:37:04.038Z,14.73
2023-04-06T09:39:34.242Z,9.43
2023-04-06T09:42:03.919Z,11.60
2023-04-06T09:44:35.334Z,9.20
2023-04-06T09:47:06.433Z,10.40
2023-04-06T09:49:36.560Z,9.83
2023-04-06T09:52:06.647Z,9.90
2023-04-06T09:54:38.968Z,10.27
2023-04-06T09:57:25.735Z,9.97
2023-04-06T10:00:09.324Z,10.60
2023-04-06T10:02:46.342Z,10.33
2023-04-06T10:05:22.288Z,10.23
2023-04-06T10:08:00.424Z,10.23
2023-04-06T10:10:33.974Z,9.77
2023-04-06T10:13:02.730Z,10.10
2023-04-06T10:15:32.097Z,9.87
2023-04-06T10:18:03.540Z,9.93
2023-04-06T10:20:39.641Z,10.00
2023-04-06T10:23:15.354Z,10.17
2023-04-06T10:25:57.573Z,10.03
2023-04-06T10:28:26.417Z,10.30
2023-04-06T10:31:00.040Z,9.97
2023-04-06T10:33:28.548Z,9.67
2023-04-06T10:35:57.333Z,9.77
2023-04-06T10:38:39.649Z,9.80
2023-04-06T10:41:13.191Z,10.03
2023-04-06T10:43:48.786Z,10.23
2023-04-06T10:46:27.901Z,10.33
2023-04-06T10:48:56.318Z,10.50
2023-04-06T10:51:28.914Z,10.90
2023-04-06T10:53:58.167Z,10.53
2023-04-06T10:56:29.176Z,10.40
2023-04-06T10:58:58.143Z,11.10
2023-04-06T11:01:28.695Z,11.70
2023-04-06T11:04:00.654Z,10.40
2023-04-06T11:06:32.254Z,11.17
2023-04-06T11:09:01.419Z,11.60
2023-04-06T11:11:31.683Z,11.40
2023-04-06T11:14:01.401Z,11.70
2023-04-06T11:16:32.209Z,10.93
2023-04-06T11:19:05.229Z,11.90
2023-04-06T11:21:40.854Z,11.23
2023-04-06T11:24:11.248Z,11.50
2023-04-06T11:26:42.587Z,11.20
2023-04-06T11:29:11.630Z,11.83
2023-04-06T11:31:44.197Z,11.37
2023-04-06T11:34:16.296Z,10.30
2023-04-06T11:36:48.947Z,10.50
2023-04-06T11:39:22.056Z,10.23
2023-04-06T11:41:53.111Z,10.90
2023-04-06T11:44:32.075Z,10.67
2023-04-06T11:47:00.938Z,10.10
2023-04-06T11:49:30.303Z,10.20
2023-04-06T11:51:58.591Z,10.30
2023-04-06T11:54:34.325Z,10.33
2023-04-06T11:57:06.924Z,9.90
2023-04-06T11:59:35.638Z,9.73
2023-04-06T12:02:04.664Z,9.10
2023-04-06T12:04:32.865Z,9.77
2023-04-06T12:07:02.653Z,9.23
2023-04-06T12:09:32.153Z,8.77
2023-04-06T12:12:00.354Z,9.30
2023-04-06T12:14:31.907Z,11.33
2023-04-06T12:17:00.427Z,8.20
2023-04-06T12:19:31.150Z,9.50
2023-04-06T12:22:06.487Z,9.63
2023-04-06T12:24:42.155Z,9.80
2023-04-06T12:27:12.928Z,9.83
2023-04-06T12:29:45.865Z,9.30
2023-04-06T12:32:14.457Z,9.23
2023-04-06T12:34:42.764Z,8.53
2023-04-06T12:37:14.565Z,10.60
2023-04-06T12:39:42.673Z,9.53
2023-04-06T12:42:12.314Z,9.03
2023-04-06T12:44:46.215Z,9.00
2023-04-06T12:47:15.118Z,8.77
2023-04-06T12:49:44.115Z,8.50
2023-04-06T12:52:14.148Z,8.37
2023-04-06T12:54:42.729Z,8.60
2023-04-06T12:57:11.760Z,8.57
2023-04-06T12:59:41.614Z,8.33
2023-04-06T13:02:13.343Z,8.97
2023-04-06T13:04:43.342Z,8.87
2023-04-06T13:07:11.923Z,8.90
2023-04-06T13:09:40.588Z,10.20
2023-04-06T13:12:09.082Z,8.90
2023-04-06T13:14:37.416Z,9.37
2023-04-06T13:17:05.986Z,9.50
2023-04-06T13:19:35.953Z,8.10
2023-04-06T13:22:04.179Z,8.80
2023-04-06T13:24:32.429Z,8.30
2023-04-06T13:27:01.928Z,9.27
2023-04-06T13:29:30.099Z,8.90
2023-04-06T13:31:58.255Z,8.80
2023-04-06T13:34:26.615Z,10.20
2023-04-06T13:36:56.409Z,9.87
2023-04-06T13:39:24.666Z,9.23
2023-04-06T13:41:53.019Z,8.97
2023-04-06T13:44:21.098Z,8.73
2023-04-06T13:46:49.471Z,11.23
2023-04-06T13:49:18.998Z,8.30
2023-04-06T13:51:51.858Z,8.53
2023-04-06T13:54:22.549Z,9.07
2023-04-06T13:56:51.196Z,8.37
2023-04-06T13:59:19.644Z,9.57
2023-04-06T14:01:47.899Z,9.13
2023-04-06T14:04:16.284Z,9.50
2023-04-06T14:06:46.729Z,9.23
2023-04-06T14:09:15.119Z,9.10
2023-04-06T14:11:45.001Z,9.17
2023-04-06T14:14:13.754Z,9.30
2023-04-06T14:16:45.201Z,9.27
2023-04-06T14:19:14.029Z,9.50
2023-04-06T14:21:44.876Z,9.03
2023-04-06T14:24:13.712Z,8.50
2023-04-06T14:26:44.041Z,9.47
2023-04-06T14:29:13.910Z,9.20
2023-04-06T14:31:42.417Z,8.83
2023-04-06T14:34:11.053Z,8.63
2023-04-06T14:36:39.468Z,8.63
2023-04-06T14:39:08.471Z,8.43
2023-04-06T14:41:37.321Z,8.40
2023-04-06T14:44:06.038Z,6.40
2023-04-06T14:46:36.212Z,6.57
2023-04-06T14:49:04.772Z,6.43
2023-04-06T14:51:37.066Z,6.20
2023-04-06T14:54:06.204Z,7.10
2023-04-06T14:56:34.205Z,7.50
2023-04-06T14:59:03.210Z,6.63
2023-04-06T15:01:32.587Z,6.83
2023-04-06T15:04:05.134Z,6.87
2023-04-06T15:06:33.378Z,7.10
2023-04-06T15:09:01.709Z,8.07
2023-04-06T15:11:29.945Z,9.00
2023-04-06T15:13:58.368Z,8.60
2023-04-06T15:16:26.811Z,7.80
2023-04-06T15:18:55.038Z,8.07
2023-04-06T15:21:24.980Z,8.07
2023-04-06T15:23:53.218Z,8.53
2023-04-06T15:26:21.964Z,8.97
2023-04-06T15:28:50.880Z,9.47
2023-04-06T15:31:35.875Z,8.53
2023-04-06T15:34:06.881Z,9.23
2023-04-06T15:36:36.902Z,8.87
2023-04-06T15:39:09.646Z,8.93
2023-04-06T15:41:38.573Z,8.80
2023-04-06T15:44:07.283Z,9.50
2023-04-06T15:46:35.479Z,9.97
2023-04-06T15:49:03.909Z,8.93
2023-04-06T15:51:33.668Z,9.07
2023-04-06T15:54:04.040Z,10.30
2023-04-06T15:56:35.196Z,8.37
2023-04-06T15:59:04.469Z,8.30
2023-04-06T16:01:33.185Z,9.10
2023-04-06T16:04:01.737Z,8.63
2023-04-06T16:06:30.280Z,7.50
2023-04-06T16:08:58.862Z,9.00
2023-04-06T16:11:28.711Z,8.00
2023-04-06T16:13:57.571Z,7.83
2023-04-06T16:16:26.282Z,7.00
2023-04-06T16:18:55.048Z,7.77
2023-04-06T16:21:23.258Z,7.70
2023-04-06T16:23:52.042Z,7.27
2023-04-06T16:26:21.933Z,7.70
2023-04-06T16:28:51.827Z,7.53
2023-04-06T16:31:22.181Z,6.97
2023-04-06T16:33:51.073Z,7.60
2023-04-06T16:36:24.276Z,9.23
2023-04-06T16:38:53.216Z,7.77
2023-04-06T16:41:21.671Z,7.40
2023-04-06T16:43:54.054Z,6.90
2023-04-06T16:46:22.308Z,7.63
2023-04-06T16:48:50.882Z,9.13
2023-04-06T16:51:19.347Z,7.63
2023-04-06T16:53:48.392Z,7.07
2023-04-06T16:56:16.786Z,6.93
2023-04-06T16:58:45.370Z,6.50
2023-04-06T17:01:26.900Z,6.00
2023-04-06T17:03:56.232Z,5.27
2023-04-06T17:06:25.070Z,6.73
2023-04-06T17:08:54.182Z,10.87
2023-04-06T17:11:28.603Z,7.47
2023-04-06T17:14:04.721Z,7.07
2023-04-06T17:16:34.555Z,6.00
2023-04-06T17:19:05.257Z,6.80
2023-04-06T17:21:33.433Z,6.30
2023-04-06T17:24:01.746Z,8.63
2023-04-06T17:26:31.378Z,5.90
2023-04-06T17:28:59.558Z,6.53
2023-04-06T17:31:28.268Z,6.30
2023-04-06T17:33:58.874Z,5.77
2023-04-06T17:36:29.017Z,7.00
2023-04-06T17:38:59.528Z,5.87
2023-04-06T17:41:28.808Z,6.03
2023-04-06T17:43:58.872Z,5.87
2023-04-06T17:46:27.356Z,5.83
2023-04-06T17:48:55.961Z,6.10
2023-04-06T17:51:27.341Z,5.97
2023-04-06T17:53:55.497Z,5.93
2023-04-06T17:56:24.446Z,6.00
2023-04-06T17:58:56.595Z,5.93
2023-04-06T18:01:26.363Z,5.57
2023-04-06T18:03:55.009Z,6.10
2023-04-06T18:06:25.750Z,6.50
2023-04-06T18:08:56.038Z,6.80
2023-04-06T18:11:25.928Z,6.17
2023-04-06T18:13:54.823Z,7.00
2023-04-06T18:16:23.736Z,5.93
2023-04-06T18:18:52.922Z,6.60
2023-04-06T18:21:21.295Z,6.03
2023-04-06T18:23:49.639Z,5.57
2023-04-06T18:26:21.305Z,5.87
2023-04-06T18:28:49.565Z,5.80
2023-04-06T18:31:17.995Z,5.20
2023-04-06T18:33:46.995Z,5.37
2023-04-06T18:36:15.727Z,4.57
2023-04-06T18:38:45.618Z,6.77
2023-04-06T18:41:16.578Z,5.30
2023-04-06T18:43:46.525Z,5.10
2023-04-06T18:46:15.971Z,5.60
2023-04-06T18:48:44.839Z,5.43
2023-04-06T18:51:13.452Z,5.30
2023-04-06T18:53:41.829Z,5.23
2023-04-06T18:56:17.742Z,5.30
2023-04-06T18:58:48.668Z,4.90
2023-04-06T19:01:23.530Z,5.43
2023-04-06T19:03:52.937Z,5.33
2023-04-06T19:06:21.648Z,5.17
2023-04-06T19:08:50.318Z,5.07
2023-04-06T19:11:19.994Z,4.33
2023-04-06T19:13:50.974Z,4.70
2023-04-06T19:16:19.664Z,4.77
2023-04-06T19:18:48.256Z,4.80
2023-04-06T19:21:18.235Z,4.50
2023-04-06T19:23:48.798Z,4.50
2023-04-06T19:26:21.070Z,4.30
2023-04-06T19:28:52.454Z,4.80
2023-04-06T19:31:21.684Z,4.50
2023-04-06T19:33:50.504Z,4.20
2023-04-06T19:36:18.862Z,4.17
2023-04-06T19:38:47.259Z,4.33
2023-04-06T19:41:15.586Z,4.50
2023-04-06T19:43:44.173Z,5.90
2023-04-06T19:46:15.748Z,5.37
2023-04-06T19:48:44.138Z,4.50
2023-04-06T19:51:13.783Z,4.87
2023-04-06T19:53:42.552Z,5.53
2023-04-06T19:56:11.652Z,4.27
2023-04-06T19:58:40.284Z,4.80
2023-04-06T20:01:08.401Z,5.20
2023-04-06T20:03:38.536Z,5.40
2023-04-06T20:06:07.379Z,5.20
2023-04-06T20:08:35.467Z,6.00
2023-04-06T20:11:04.734Z,6.03
2023-04-06T20:13:32.944Z,5.70
2023-04-06T20:16:02.094Z,6.00
2023-04-06T20:18:30.595Z,6.07
2023-04-06T20:21:00.598Z,6.07
2023-04-06T20:23:29.283Z,6.27
2023-04-06T20:25:57.410Z,5.83
2023-04-06T20:28:25.512Z,6.77
2023-04-06T20:30:54.207Z,7.13
2023-04-06T20:33:22.452Z,6.70
2023-04-06T20:36:00.262Z,7.10
2023-04-06T20:41:00.645Z,6.80
2023-04-06T20:43:29.615Z,7.40
2023-04-06T20:45:58.465Z,7.10
2023-04-06T20:48:26.899Z,7.80
2023-04-06T20:50:55.401Z,7.57
2023-04-06T20:53:25.532Z,7.77
2023-04-06T20:55:53.634Z,7.87
2023-04-06T20:58:22.034Z,7.43
2023-04-06T21:00:50.743Z,7.30
2023-04-06T21:03:18.919Z,6.83
2023-04-06T21:05:52.497Z,6.53
2023-04-06T21:08:20.971Z,6.70
2023-04-06T21:10:50.534Z,7.07
2023-04-06T21:13:18.636Z,7.10
2023-04-06T21:15:46.948Z,7.20
2023-04-06T21:18:15.389Z,6.50
2023-04-06T21:20:43.717Z,6.73
2023-04-06T21:23:12.873Z,7.27
2023-04-06T21:25:40.977Z,8.17
2023-04-06T21:28:10.620Z,7.30
2023-04-06T21:30:39.008Z,7.87
2023-04-06T21:33:07.799Z,7.23
2023-04-06T21:35:40.507Z,7.77
2023-04-06T21:38:08.945Z,7.37
2023-04-06T21:40:37.427Z,7.10
2023-04-06T21:43:05.784Z,7.93
2023-04-06T21:45:35.265Z,8.07
2023-04-06T21:48:03.768Z,8.30
2023-04-06T21:50:32.074Z,8.30
2023-04-06T21:53:00.302Z,8.70
2023-04-06T21:55:28.697Z,8.77
2023-04-06T21:57:58.245Z,8.80
2023-04-06T22:00:26.455Z,9.80
2023-04-06T22:02:56.469Z,9.77
2023-04-06T22:05:25.014Z,9.87
2023-04-06T22:07:53.792Z,10.07
2023-04-06T22:10:22.017Z,11.50
2023-04-06T22:12:51.220Z,10.77
2023-04-06T22:15:19.685Z,14.23
2023-04-06T22:17:48.110Z,14.33
2023-04-06T22:20:18.240Z,14.53
2023-04-06T22:22:46.662Z,15.40
2023-04-06T22:25:14.810Z,14.47
2023-04-06T22:27:42.978Z,13.10
2023-04-06T22:30:12.327Z,14.73
2023-04-06T22:32:40.732Z,16.23
2023-04-06T22:35:10.301Z,14.70
2023-04-06T22:37:43.642Z,15.07
2023-04-06T22:40:13.402Z,15.50
2023-04-06T22:42:43.220Z,15.67
2023-04-06T22:45:12.414Z,16.33
2023-04-06T22:47:41.793Z,16.17
2023-04-06T22:50:11.041Z,16.77
2023-04-06T22:52:40.999Z,15.20
2023-04-06T22:55:09.714Z,15.73
2023-04-06T22:57:38.003Z,15.47
2023-04-06T23:00:07.268Z,15.53
2023-04-06T23:02:35.670Z,16.43
2023-04-06T23:05:04.115Z,15.93
2023-04-06T23:07:35.713Z,15.70
2023-04-06T23:10:06.164Z,16.03
2023-04-06T23:12:36.452Z,16.00
2023-04-06T23:15:05.458Z,16.70
2023-04-06T23:17:33.559Z,16.57
2023-04-06T23:20:04.293Z,16.20
2023-04-06T23:22:32.778Z,17.90
2023-04-06T23:25:00.955Z,15.50
2023-04-06T23:27:32.440Z,16.43
2023-04-06T23:30:01.968Z,16.03
2023-04-06T23:32:30.043Z,16.53
2023-04-06T23:34:58.465Z,15.30
2023-04-06T23:37:27.481Z,16.50
2023-04-06T23:39:55.929Z,16.80
2023-04-06T23:42:28.949Z,15.43
2023-04-06T23:44:58.878Z,15.97
2023-04-06T23:47:27.309Z,16.57
2023-04-06T23:49:56.604Z,16.70
2023-04-06T23:52:25.037Z,16.00
2023-04-06T23:54:54.000Z,15.77
2023-04-06T23:57:22.673Z,16.40
2023-04-06T23:59:52.500Z,17.40
